Terminal Aerodrome Forecast
Issued by NWS Sterling, VA

Home | Current Version | Previous Version | Text Only | Print | Product List | Glossary On
Versions: 1 2 3 4 5 6 7 8 9 10 11 12 13 14 15 16 17 18 19 20 21 22 23 24 25 26 27 28 29 30 31 32 33 34 35 36
519
FTUS41 KLWX 161137
TAFCHO
TAF
KCHO 161137Z 1612/1712 03004KT 6SM -RA OVC030
     FM161300 07004KT 6SM -RA OVC015
     FM161400 VRB03KT 3SM -RA OVC008
     FM161600 VRB03KT 3SM -RA OVC003
     FM170600 VRB03KT 4SM -RA OVC008
     FM171100 20005KT 4SM -RA OVC008 WS020/22035KT=

USA.gov is the U.S. government's official web portal to all federal, state and local government web resources and services.